createdAt,value
2022-12-13T00:01:55.048Z,99952.38
2022-12-13T00:04:59.493Z,99954.03
2022-12-13T00:08:04.050Z,99964.81
2022-12-13T00:11:11.865Z,99964.69
2022-12-13T00:14:17.471Z,99957.34
2022-12-13T00:17:21.562Z,99967.03
2022-12-13T00:20:25.875Z,99967.28
2022-12-13T00:23:30.421Z,99983.47
2022-12-13T00:26:36.412Z,99990.56
2022-12-13T00:29:40.997Z,99967.13
2022-12-13T00:32:45.756Z,99976.28
2022-12-13T00:35:50.152Z,99985.81
2022-12-13T00:39:03.187Z,99973.78
2022-12-13T00:42:07.557Z,99972.03
2022-12-13T00:45:12.573Z,99997.81
2022-12-13T00:48:17.098Z,99967.91
2022-12-13T00:51:23.228Z,99990.00
2022-12-13T00:54:27.707Z,99986.81
2022-12-13T00:57:32.158Z,99990.34
2022-12-13T01:00:37.298Z,99983.56
2022-12-13T01:03:42.959Z,99999.16
2022-12-13T01:06:50.626Z,100001.00
2022-12-13T01:09:55.128Z,99987.63
2022-12-13T01:13:00.091Z,99985.13
2022-12-13T01:16:09.951Z,100011.72
2022-12-13T01:19:14.537Z,100015.31
2022-12-13T01:22:19.531Z,100002.19
2022-12-13T01:25:24.281Z,100019.72
2022-12-13T01:28:29.268Z,100002.41
2022-12-13T01:31:33.797Z,100008.88
2022-12-13T01:34:38.226Z,99989.06
2022-12-13T01:37:42.702Z,100000.75
2022-12-13T01:40:59.084Z,100006.19
2022-12-13T01:44:06.405Z,100007.28
2022-12-13T01:47:11.526Z,100003.16
2022-12-13T01:50:30.283Z,100003.88
2022-12-13T01:53:38.239Z,99971.81
2022-12-13T01:56:47.063Z,99993.44
2022-12-13T01:59:53.309Z,99982.34
2022-12-13T02:03:01.088Z,99982.75
2022-12-13T02:06:13.331Z,99979.38
2022-12-13T02:09:18.384Z,100007.69
2022-12-13T02:12:23.163Z,100000.75
2022-12-13T02:15:52.856Z,100007.41
2022-12-13T02:19:30.134Z,100008.66
2022-12-13T02:22:58.510Z,100010.66
2022-12-13T02:26:08.691Z,99997.41
2022-12-13T02:29:36.553Z,100003.25
2022-12-13T02:32:43.968Z,100005.69
2022-12-13T02:36:14.082Z,100005.16
2022-12-13T02:39:30.462Z,99966.78
2022-12-13T02:42:49.289Z,99967.44
2022-12-13T02:45:59.226Z,100005.88
2022-12-13T02:49:05.097Z,99997.25
2022-12-13T02:52:12.611Z,100003.94
2022-12-13T02:55:18.272Z,99998.06
2022-12-13T02:58:29.220Z,99984.28
2022-12-13T03:01:52.150Z,99987.34
2022-12-13T03:05:38.261Z,99988.56
2022-12-13T03:09:21.318Z,99996.16
2022-12-13T03:12:51.311Z,99965.66
2022-12-13T03:15:59.834Z,99888.19
2022-12-13T03:19:09.689Z,99917.69
2022-12-13T03:22:18.471Z,99968.59
2022-12-13T03:25:32.841Z,99987.78
2022-12-13T03:28:38.753Z,99999.50
2022-12-13T03:31:43.086Z,99990.28
2022-12-13T03:34:52.141Z,99976.94
2022-12-13T03:38:07.616Z,99981.47
2022-12-13T03:41:18.501Z,99960.81
2022-12-13T03:44:23.183Z,99925.91
2022-12-13T03:47:27.500Z,99947.66
2022-12-13T03:50:31.771Z,99960.25
2022-12-13T03:53:36.252Z,99966.09
2022-12-13T03:56:40.645Z,99939.69
2022-12-13T03:59:45.096Z,99935.47
2022-12-13T04:02:49.552Z,99956.25
2022-12-13T04:05:53.987Z,99948.47
2022-12-13T04:08:58.394Z,99948.25
2022-12-13T04:12:21.367Z,99934.91
2022-12-13T04:15:25.663Z,99939.41
2022-12-13T04:18:30.557Z,99945.22
2022-12-13T04:21:35.269Z,99950.63
2022-12-13T04:24:39.759Z,99945.59
2022-12-13T04:27:44.243Z,99947.59
2022-12-13T04:30:52.919Z,99956.97
2022-12-13T04:33:58.430Z,99963.06
2022-12-13T04:37:02.844Z,99944.47
2022-12-13T04:40:07.780Z,99940.78
2022-12-13T04:43:12.488Z,99962.94
2022-12-13T04:46:16.843Z,99944.50
2022-12-13T04:49:21.544Z,99927.88
2022-12-13T04:52:26.245Z,99948.00
2022-12-13T04:55:30.527Z,99932.56
2022-12-13T04:58:35.200Z,99937.22
2022-12-13T05:01:39.601Z,99953.16
2022-12-13T05:04:43.888Z,99947.63
2022-12-13T05:07:48.284Z,99903.56
2022-12-13T05:10:52.679Z,99915.94
2022-12-13T05:13:56.922Z,99929.16
2022-12-13T05:17:02.364Z,99926.94
2022-12-13T05:20:07.685Z,99915.41
2022-12-13T05:23:12.094Z,99918.25
2022-12-13T05:26:16.453Z,99944.16
2022-12-13T05:29:21.088Z,99948.38
2022-12-13T05:32:25.401Z,99925.81
2022-12-13T05:35:30.177Z,99928.84
2022-12-13T05:38:34.697Z,99896.78
2022-12-13T05:41:39.328Z,99941.97
2022-12-13T05:44:44.043Z,99945.34
2022-12-13T05:47:49.144Z,99978.91
2022-12-13T05:51:10.874Z,99987.63
2022-12-13T05:54:16.543Z,99979.91
2022-12-13T05:57:20.924Z,99980.63
2022-12-13T06:00:30.045Z,99948.09
2022-12-13T06:03:35.081Z,99986.78
2022-12-13T06:06:39.439Z,99978.91
2022-12-13T06:09:44.072Z,99961.16
2022-12-13T06:12:48.716Z,99994.25
2022-12-13T06:16:01.283Z,99996.81
2022-12-13T06:19:06.006Z,99997.84
2022-12-13T06:22:10.691Z,100018.25
2022-12-13T06:25:31.193Z,99977.44
2022-12-13T06:28:36.731Z,100018.41
2022-12-13T06:31:41.146Z,100021.78
2022-12-13T06:34:45.434Z,100032.53
2022-12-13T06:37:53.926Z,100024.63
2022-12-13T06:41:17.588Z,100044.28
2022-12-13T06:44:21.924Z,100031.09
2022-12-13T06:47:31.850Z,100044.88
2022-12-13T06:50:37.020Z,100057.06
2022-12-13T06:53:42.482Z,100053.75
2022-12-13T06:56:46.844Z,100059.78
2022-12-13T06:59:51.354Z,100051.31
2022-12-13T07:02:56.436Z,100048.09
2022-12-13T07:06:04.749Z,100061.19
2022-12-13T07:09:09.213Z,100067.66
2022-12-13T07:12:13.578Z,100064.69
2022-12-13T07:15:18.245Z,100064.63
2022-12-13T07:18:22.565Z,100089.19
2022-12-13T07:21:27.507Z,100091.84
2022-12-13T07:24:31.956Z,100095.59
2022-12-13T07:27:36.600Z,100080.28
2022-12-13T07:30:41.947Z,100076.41
2022-12-13T07:33:46.227Z,100085.81
2022-12-13T07:36:53.805Z,100074.00
2022-12-13T07:40:03.337Z,100077.84
2022-12-13T07:43:08.663Z,100096.38
2022-12-13T07:46:13.351Z,100087.94
2022-12-13T07:49:18.346Z,100083.44
2022-12-13T07:52:22.732Z,100109.47
2022-12-13T07:55:33.376Z,100100.47
2022-12-13T07:58:40.466Z,100099.22
2022-12-13T08:01:44.515Z,100126.56
2022-12-13T08:04:55.024Z,100122.91
2022-12-13T08:08:00.871Z,100127.88
2022-12-13T08:11:16.323Z,100137.81
2022-12-13T08:14:20.542Z,100135.16
2022-12-13T08:17:25.284Z,100132.75
2022-12-13T08:20:29.938Z,100128.34
2022-12-13T08:23:35.398Z,100141.50
2022-12-13T08:26:39.971Z,100131.09
2022-12-13T08:29:46.629Z,100144.22
2022-12-13T08:32:51.889Z,100124.34
2022-12-13T08:35:56.529Z,100148.78
2022-12-13T08:39:05.511Z,100135.22
2022-12-13T08:42:19.415Z,100110.44
2022-12-13T08:45:25.100Z,100148.84
2022-12-13T08:48:29.891Z,100119.34
2022-12-13T08:51:35.707Z,100135.53
2022-12-13T08:54:40.384Z,100139.41
2022-12-13T08:57:45.327Z,100170.75
2022-12-13T09:00:49.938Z,100168.19
2022-12-13T09:03:56.701Z,100174.50
2022-12-13T09:07:02.106Z,100160.31
2022-12-13T09:10:26.687Z,100102.72
2022-12-13T09:13:34.090Z,100182.84
2022-12-13T09:16:50.524Z,100142.81
2022-12-13T09:19:58.202Z,100170.41
2022-12-13T09:23:05.500Z,100174.59
2022-12-13T09:26:11.725Z,100105.38
2022-12-13T09:29:23.551Z,100179.59
2022-12-13T09:32:28.984Z,100178.03
2022-12-13T09:35:33.058Z,100189.69
2022-12-13T09:38:38.238Z,100188.94
2022-12-13T09:42:01.164Z,100158.38
2022-12-13T09:45:22.413Z,100167.81
2022-12-13T09:48:39.089Z,100193.91
2022-12-13T09:51:48.179Z,100207.53
2022-12-13T09:54:58.833Z,100176.16
2022-12-13T09:58:15.538Z,100139.22
2022-12-13T10:01:22.522Z,100200.31
2022-12-13T10:04:30.159Z,100216.00
2022-12-13T10:07:34.442Z,100202.63
2022-12-13T10:10:39.647Z,100207.25
2022-12-13T10:14:01.374Z,100197.22
2022-12-13T10:17:10.416Z,100190.59
2022-12-13T10:20:22.897Z,100206.28
2022-12-13T10:23:42.826Z,100190.78
2022-12-13T10:26:53.217Z,100211.56
2022-12-13T10:30:02.650Z,100223.00
2022-12-13T10:33:24.362Z,100226.25
2022-12-13T10:36:42.298Z,100200.28
2022-12-13T10:39:47.928Z,100187.75
2022-12-13T10:43:21.699Z,100235.78
2022-12-13T10:46:26.333Z,100223.72
2022-12-13T10:49:59.099Z,100225.59
2022-12-13T10:53:04.165Z,100157.34
2022-12-13T10:56:09.430Z,100224.69
2022-12-13T10:59:33.183Z,100198.16
2022-12-13T11:02:42.411Z,100226.72
2022-12-13T11:05:51.089Z,100219.53
2022-12-13T11:09:01.574Z,100235.31
2022-12-13T11:12:14.938Z,100228.94
2022-12-13T11:15:27.065Z,100262.44
2022-12-13T11:18:38.278Z,100262.91
2022-12-13T11:21:49.337Z,100235.78
2022-12-13T11:25:17.480Z,100209.84
2022-12-13T11:28:49.075Z,100253.84
2022-12-13T11:32:22.714Z,100259.72
2022-12-13T11:35:37.783Z,100264.25
2022-12-13T11:39:09.767Z,100257.50
2022-12-13T11:42:35.885Z,100266.78
2022-12-13T11:45:53.378Z,100273.97
2022-12-13T11:49:03.347Z,100265.88
2022-12-13T11:52:14.234Z,100274.31
2022-12-13T11:55:27.570Z,100271.34
2022-12-13T12:02:17.814Z,100268.91
2022-12-13T12:05:39.112Z,100269.47
2022-12-13T12:08:54.302Z,100266.56
2022-12-13T12:12:16.143Z,100275.75
2022-12-13T12:15:32.523Z,100263.72
2022-12-13T12:18:48.046Z,100277.19
2022-12-13T12:22:32.343Z,100276.31
2022-12-13T12:26:13.275Z,100263.88
2022-12-13T12:29:38.406Z,100275.22
2022-12-13T12:33:02.387Z,100269.63
2022-12-13T12:37:03.403Z,100295.28
2022-12-13T12:40:52.196Z,100286.53
2022-12-13T12:44:12.999Z,100289.81
2022-12-13T12:48:46.319Z,100285.19
2022-12-13T12:51:49.258Z,100253.69
2022-12-13T12:54:53.752Z,100287.16
2022-12-13T12:58:13.148Z,100288.72
2022-12-13T13:01:52.985Z,100287.38
2022-12-13T13:05:21.056Z,100272.06
2022-12-13T13:08:44.038Z,100288.13
2022-12-13T13:11:50.328Z,100279.97
2022-12-13T13:15:02.019Z,100297.19
2022-12-13T13:18:41.173Z,100296.25
2022-12-13T13:22:01.759Z,100282.22
2022-12-13T13:25:09.185Z,100293.16
2022-12-13T13:28:22.759Z,100298.41
2022-12-13T13:31:27.294Z,100292.66
2022-12-13T13:34:37.050Z,100273.97
2022-12-13T13:37:50.059Z,100304.81
2022-12-13T13:40:54.421Z,100293.88
2022-12-13T13:44:02.332Z,100258.94
2022-12-13T13:47:16.979Z,100304.25
2022-12-13T13:50:36.989Z,100297.56
2022-12-13T13:54:05.873Z,100297.25
2022-12-13T13:58:08.729Z,100288.03
2022-12-13T14:01:45.525Z,100292.19
2022-12-13T14:05:14.850Z,100298.41
2022-12-13T14:08:37.057Z,100294.09
2022-12-13T14:12:05.967Z,100290.66
2022-12-13T14:15:49.485Z,100281.16
2022-12-13T14:19:12.929Z,100282.94
2022-12-13T14:22:34.309Z,100288.09
2022-12-13T14:26:06.302Z,100290.47
2022-12-13T14:29:21.361Z,100279.34
2022-12-13T14:32:33.638Z,100267.94
2022-12-13T14:35:38.149Z,100280.41
2022-12-13T14:38:42.878Z,100272.06
2022-12-13T14:41:49.153Z,100264.59
2022-12-13T14:45:26.128Z,100267.19
2022-12-13T14:48:56.330Z,100269.81
2022-12-13T14:52:07.496Z,100262.59
2022-12-13T14:55:32.800Z,100283.94
2022-12-13T14:58:38.372Z,100283.97
2022-12-13T15:01:44.072Z,100267.50
2022-12-13T15:04:49.242Z,100282.16
2022-12-13T15:07:54.221Z,100290.03
2022-12-13T15:11:05.329Z,100281.66
2022-12-13T15:14:19.829Z,100292.19
2022-12-13T15:17:43.304Z,100261.19
2022-12-13T15:21:00.677Z,100287.41
2022-12-13T15:24:14.614Z,100275.47
2022-12-13T15:27:28.950Z,100269.09
2022-12-13T15:30:36.232Z,100278.06
2022-12-13T15:33:48.513Z,100270.91
2022-12-13T15:36:53.278Z,100266.31
2022-12-13T15:40:02.909Z,100216.41
2022-12-13T15:43:07.563Z,100249.88
2022-12-13T15:46:14.551Z,100230.53
2022-12-13T15:49:34.215Z,100245.91
2022-12-13T15:52:42.227Z,100173.38
2022-12-13T15:55:52.339Z,100235.22
2022-12-13T15:58:57.259Z,100216.06
2022-12-13T16:02:03.134Z,100222.50
2022-12-13T16:05:21.986Z,100215.63
2022-12-13T16:08:39.309Z,100203.63
2022-12-13T16:11:53.185Z,100163.81
2022-12-13T16:15:29.079Z,100200.38
2022-12-13T16:18:43.736Z,100201.84
2022-12-13T16:21:48.675Z,100222.50
2022-12-13T16:24:54.098Z,100222.47
2022-12-13T16:27:58.549Z,100191.34
2022-12-13T16:31:13.864Z,100207.03
2022-12-13T16:34:18.476Z,100206.53
2022-12-13T16:37:27.933Z,100209.91
2022-12-13T16:40:33.931Z,100200.59
2022-12-13T16:44:01.941Z,100208.94
2022-12-13T16:47:23.357Z,100213.06
2022-12-13T16:50:31.377Z,100206.13
2022-12-13T16:53:35.836Z,100204.97
2022-12-13T16:56:42.004Z,100210.78
2022-12-13T16:59:46.331Z,100210.88
2022-12-13T17:02:50.726Z,100167.41
2022-12-13T17:05:58.997Z,100204.16
2022-12-13T17:09:04.952Z,100200.50
2022-12-13T17:12:10.082Z,100175.47
2022-12-13T17:15:14.466Z,100199.03
2022-12-13T17:18:19.717Z,100148.13
2022-12-13T17:21:25.760Z,100155.16
2022-12-13T17:24:31.947Z,100186.09
2022-12-13T17:27:39.874Z,100179.44
2022-12-13T17:30:44.404Z,100183.88
2022-12-13T17:33:49.383Z,100210.28
2022-12-13T17:36:54.070Z,100193.63
2022-12-13T17:39:58.381Z,100194.19
2022-12-13T17:43:02.702Z,100172.72
2022-12-13T17:46:11.407Z,100187.00
2022-12-13T17:49:16.032Z,100175.56
2022-12-13T17:52:20.452Z,100166.94
2022-12-13T17:55:24.698Z,100180.50
2022-12-13T17:58:30.964Z,100171.31
2022-12-13T18:01:35.636Z,100184.31
2022-12-13T18:04:40.150Z,100166.41
2022-12-13T18:07:44.532Z,100170.72
2022-12-13T18:11:23.878Z,100184.50
2022-12-13T18:14:24.645Z,100177.56
2022-12-13T18:17:46.516Z,100180.63
2022-12-13T18:20:53.464Z,100181.97
2022-12-13T18:24:00.096Z,100139.56
2022-12-13T18:27:05.614Z,100118.63
2022-12-13T18:30:11.640Z,100166.66
2022-12-13T18:33:16.138Z,100165.91
2022-12-13T18:36:22.230Z,100157.03
2022-12-13T18:39:26.827Z,100186.19
2022-12-13T18:42:32.013Z,100181.38
2022-12-13T18:45:39.265Z,100185.81
2022-12-13T18:48:44.065Z,100179.59
2022-12-13T18:51:48.662Z,100179.50
2022-12-13T18:54:54.831Z,100178.84
2022-12-13T18:57:59.372Z,100183.00
2022-12-13T19:01:06.547Z,100189.34
2022-12-13T19:04:11.088Z,100190.09
2022-12-13T19:07:15.759Z,100176.28
2022-12-13T19:10:20.522Z,100186.66
2022-12-13T19:13:27.636Z,100180.34
2022-12-13T19:16:32.793Z,100171.72
2022-12-13T19:19:37.269Z,100182.25
2022-12-13T19:22:41.733Z,100184.66
2022-12-13T19:25:48.552Z,100185.00
2022-12-13T19:28:53.346Z,100177.31
2022-12-13T19:31:57.604Z,100178.19
2022-12-13T19:35:02.003Z,100170.13
2022-12-13T19:38:07.146Z,100181.09
2022-12-13T19:41:17.213Z,100189.41
2022-12-13T19:44:21.510Z,100189.44
2022-12-13T19:47:27.437Z,100190.94
2022-12-13T19:50:31.987Z,100198.47
2022-12-13T19:53:37.919Z,100192.88
2022-12-13T19:56:44.647Z,100182.38
2022-12-13T19:59:49.365Z,100129.78
2022-12-13T20:02:54.166Z,100177.88
2022-12-13T20:06:00.501Z,100185.81
2022-12-13T20:09:05.076Z,100179.00
2022-12-13T20:12:09.776Z,100165.34
2022-12-13T20:15:16.451Z,100177.50
2022-12-13T20:18:21.595Z,100154.00
2022-12-13T20:21:26.172Z,100167.97
2022-12-13T20:24:30.618Z,100162.63
2022-12-13T20:27:35.547Z,100161.38
2022-12-13T20:30:40.201Z,100149.63
2022-12-13T20:33:44.750Z,100147.97
2022-12-13T20:36:49.459Z,100132.00
2022-12-13T20:39:53.883Z,100139.78
2022-12-13T20:42:58.122Z,100151.16
2022-12-13T20:46:21.837Z,100163.47
2022-12-13T20:49:25.762Z,100118.00
2022-12-13T20:52:30.113Z,100151.44
2022-12-13T20:55:36.179Z,100149.31
2022-12-13T20:58:42.646Z,100151.59
2022-12-13T21:01:49.026Z,100162.59
2022-12-13T21:04:53.835Z,100161.84
2022-12-13T21:08:16.665Z,100157.69
2022-12-13T21:11:27.116Z,100163.91
2022-12-13T21:14:31.647Z,100168.94
2022-12-13T21:17:37.494Z,100148.31
2022-12-13T21:20:41.743Z,100143.13
2022-12-13T21:23:46.239Z,100146.28
2022-12-13T21:26:52.022Z,100149.09
2022-12-13T21:29:56.310Z,100135.41
2022-12-13T21:33:00.672Z,100146.00
2022-12-13T21:36:16.501Z,100146.63
2022-12-13T21:39:28.944Z,100119.53
2022-12-13T21:42:33.512Z,100151.22
2022-12-13T21:45:37.927Z,100144.91
2022-12-13T21:48:44.186Z,100154.03
2022-12-13T21:51:48.769Z,100057.41
2022-12-13T21:55:15.097Z,100127.41
2022-12-13T21:58:35.742Z,100143.75
2022-12-13T22:02:13.757Z,100148.16
2022-12-13T22:05:18.265Z,100156.53
2022-12-13T22:08:22.814Z,100144.34
2022-12-13T22:11:27.293Z,100144.22
2022-12-13T22:14:31.528Z,100099.91
2022-12-13T22:17:36.534Z,100147.56
2022-12-13T22:20:41.359Z,100141.56
2022-12-13T22:23:46.001Z,100120.19
2022-12-13T22:26:50.649Z,100140.47
2022-12-13T22:29:57.817Z,100136.28
2022-12-13T22:33:03.314Z,100122.34
2022-12-13T22:36:08.248Z,100092.84
2022-12-13T22:39:20.644Z,100132.75
2022-12-13T22:42:25.164Z,100138.78
2022-12-13T22:45:29.752Z,100132.75
2022-12-13T22:48:34.102Z,100139.69
2022-12-13T22:51:39.105Z,100152.63
2022-12-13T22:54:43.414Z,100152.50
2022-12-13T22:57:48.662Z,100150.97
2022-12-13T23:00:53.327Z,100147.50
2022-12-13T23:03:58.398Z,100139.53
2022-12-13T23:07:02.992Z,100151.47
2022-12-13T23:10:27.999Z,100155.44
2022-12-13T23:13:32.520Z,100134.22
2022-12-13T23:16:38.507Z,100150.91
2022-12-13T23:19:49.970Z,100159.66
2022-12-13T23:22:56.156Z,100136.00
2022-12-13T23:26:09.800Z,100157.66
2022-12-13T23:29:14.597Z,100163.31
2022-12-13T23:32:20.059Z,100154.09
2022-12-13T23:35:24.308Z,100144.69
2022-12-13T23:38:29.750Z,100146.44
2022-12-13T23:41:35.209Z,100141.81
2022-12-13T23:44:39.609Z,100146.03
2022-12-13T23:47:43.863Z,100140.16
2022-12-13T23:50:48.475Z,100155.16
2022-12-13T23:53:53.848Z,100149.56
2022-12-13T23:56:58.239Z,100123.16
